createdAt,value
2022-10-29T00:01:31.916Z,7.65
2022-10-29T00:03:59.403Z,7.00
2022-10-29T00:06:28.311Z,7.40
2022-10-29T00:08:55.701Z,7.85
2022-10-29T00:11:23.162Z,6.85
2022-10-29T00:13:55.197Z,6.95
2022-10-29T00:16:23.483Z,7.25
2022-10-29T00:18:50.964Z,7.70
2022-10-29T00:21:19.192Z,7.63
2022-10-29T00:23:47.032Z,6.28
2022-10-29T00:26:15.100Z,6.90
2022-10-29T00:28:42.602Z,7.18
2022-10-29T00:31:12.604Z,6.70
2022-10-29T00:33:39.992Z,6.63
2022-10-29T00:36:08.339Z,6.93
2022-10-29T00:38:36.355Z,7.05
2022-10-29T00:41:04.920Z,6.70
2022-10-29T00:43:34.512Z,6.60
2022-10-29T00:46:07.332Z,6.88
2022-10-29T00:48:38.086Z,7.40
2022-10-29T00:51:06.689Z,7.03
2022-10-29T00:53:37.351Z,6.60
2022-10-29T00:56:05.072Z,7.40
2022-10-29T00:58:32.646Z,6.90
2022-10-29T01:01:00.173Z,7.28
2022-10-29T01:03:27.701Z,5.93
2022-10-29T01:05:56.632Z,6.78
2022-10-29T01:08:24.108Z,6.25
2022-10-29T01:10:56.196Z,6.32
2022-10-29T01:13:30.333Z,6.97
2022-10-29T01:16:03.330Z,6.90
2022-10-29T01:18:33.589Z,6.70
2022-10-29T01:21:19.613Z,7.57
2022-10-29T01:24:05.927Z,6.25
2022-10-29T01:26:46.966Z,6.72
2022-10-29T01:29:21.733Z,6.97
2022-10-29T01:31:52.760Z,7.32
2022-10-29T01:34:23.680Z,6.85
2022-10-29T01:36:57.781Z,7.07
2022-10-29T01:39:33.230Z,7.00
2022-10-29T01:42:03.551Z,6.80
2022-10-29T01:44:34.845Z,7.97
2022-10-29T01:47:04.596Z,7.32
2022-10-29T01:49:35.247Z,6.10
2022-10-29T01:52:04.035Z,6.00
2022-10-29T01:54:31.519Z,6.90
2022-10-29T01:56:59.576Z,6.13
2022-10-29T01:59:35.904Z,5.88
2022-10-29T02:02:16.782Z,6.45
2022-10-29T02:04:54.635Z,6.35
2022-10-29T02:07:27.833Z,6.20
2022-10-29T02:09:58.669Z,5.57
2022-10-29T02:12:27.881Z,5.40
2022-10-29T02:14:58.273Z,6.30
2022-10-29T02:17:27.406Z,5.57
2022-10-29T02:19:54.771Z,5.25
2022-10-29T02:22:22.183Z,6.60
2022-10-29T02:24:49.585Z,6.03
2022-10-29T02:27:16.960Z,6.18
2022-10-29T02:29:44.361Z,5.55
2022-10-29T02:32:11.828Z,5.50
2022-10-29T02:34:40.527Z,5.45
2022-10-29T02:37:07.940Z,5.15
2022-10-29T02:39:35.388Z,5.20
2022-10-29T02:42:02.805Z,5.78
2022-10-29T02:44:30.192Z,5.47
2022-10-29T02:46:57.652Z,5.38
2022-10-29T02:49:25.049Z,5.88
2022-10-29T02:51:53.783Z,6.28
2022-10-29T02:54:21.144Z,6.35
2022-10-29T02:56:48.531Z,5.82
2022-10-29T02:59:15.910Z,5.85
2022-10-29T03:01:46.704Z,5.20
2022-10-29T03:04:14.313Z,5.78
2022-10-29T03:06:41.713Z,5.30
2022-10-29T03:09:10.675Z,5.72
2022-10-29T03:11:48.426Z,5.80
2022-10-29T03:14:15.855Z,6.22
2022-10-29T03:16:43.344Z,6.18
2022-10-29T03:19:10.780Z,6.15
2022-10-29T03:21:38.277Z,5.88
2022-10-29T03:24:06.195Z,5.28
2022-10-29T03:26:34.966Z,6.88
2022-10-29T03:29:02.437Z,5.90
2022-10-29T03:31:29.882Z,6.00
2022-10-29T03:33:57.284Z,6.30
2022-10-29T03:36:24.793Z,6.45
2022-10-29T03:38:52.234Z,5.70
2022-10-29T03:41:19.898Z,5.93
2022-10-29T03:43:48.754Z,5.88
2022-10-29T03:46:16.232Z,6.22
2022-10-29T03:48:43.632Z,5.30
2022-10-29T03:51:11.050Z,5.72
2022-10-29T03:53:38.572Z,5.35
2022-10-29T03:56:06.735Z,5.88
2022-10-29T03:58:34.150Z,5.15
2022-10-29T04:01:03.700Z,6.80
2022-10-29T04:03:32.382Z,5.63
2022-10-29T04:06:00.425Z,5.03
2022-10-29T04:08:27.862Z,6.55
2022-10-29T04:10:55.794Z,5.85
2022-10-29T04:13:23.257Z,5.47
2022-10-29T04:15:54.166Z,5.28
2022-10-29T04:18:23.105Z,5.55
2022-10-29T04:22:57.148Z,5.57
2022-10-29T04:29:12.960Z,5.78
2022-10-29T04:31:40.435Z,5.75
2022-10-29T04:34:09.242Z,5.70
2022-10-29T04:36:36.646Z,5.30
2022-10-29T04:39:04.162Z,5.80
2022-10-29T04:41:31.529Z,5.22
2022-10-29T04:43:59.028Z,6.40
2022-10-29T04:46:26.471Z,5.25
2022-10-29T04:48:53.910Z,5.43
2022-10-29T04:51:23.521Z,5.68
2022-10-29T04:53:50.994Z,5.40
2022-10-29T04:56:18.767Z,5.50
2022-10-29T04:58:46.352Z,5.57
2022-10-29T05:01:13.972Z,6.03
2022-10-29T05:03:41.678Z,5.38
2022-10-29T05:06:09.219Z,5.30
2022-10-29T05:08:37.989Z,7.03
2022-10-29T05:11:06.019Z,5.68
2022-10-29T05:13:33.821Z,6.13
2022-10-29T05:16:01.208Z,6.13
2022-10-29T05:18:28.683Z,5.40
2022-10-29T05:20:56.357Z,6.20
2022-10-29T05:23:23.961Z,5.72
2022-10-29T05:25:52.882Z,6.00
2022-10-29T05:28:21.097Z,5.80
2022-10-29T05:30:49.024Z,5.70
2022-10-29T05:33:17.425Z,6.40
2022-10-29T05:35:44.913Z,6.03
2022-10-29T05:38:12.938Z,5.32
2022-10-29T05:40:42.732Z,6.03
2022-10-29T05:43:11.639Z,5.93
2022-10-29T05:45:39.022Z,5.20
2022-10-29T05:48:06.653Z,6.30
2022-10-29T05:50:34.527Z,5.32
2022-10-29T05:53:02.883Z,5.63
2022-10-29T05:55:30.672Z,5.35
2022-10-29T05:57:58.177Z,6.60
2022-10-29T06:00:27.353Z,5.75
2022-10-29T06:02:55.296Z,5.30
2022-10-29T06:05:23.174Z,6.90
2022-10-29T06:07:54.423Z,6.22
2022-10-29T06:10:21.926Z,5.70
2022-10-29T06:12:49.518Z,5.70
2022-10-29T06:15:17.214Z,5.95
2022-10-29T06:17:46.307Z,6.03
2022-10-29T06:20:14.487Z,6.45
2022-10-29T06:22:42.005Z,6.68
2022-10-29T06:25:09.945Z,7.10
2022-10-29T06:27:37.420Z,6.97
2022-10-29T06:30:04.934Z,6.53
2022-10-29T06:32:32.760Z,6.45
2022-10-29T06:35:01.568Z,6.45
2022-10-29T06:37:33.129Z,6.28
2022-10-29T06:40:00.599Z,5.97
2022-10-29T06:42:27.957Z,7.68
2022-10-29T06:44:55.402Z,7.68
2022-10-29T06:47:22.917Z,7.10
2022-10-29T06:49:50.372Z,6.82
2022-10-29T06:52:19.422Z,7.38
2022-10-29T06:54:46.834Z,6.68
2022-10-29T06:57:14.351Z,7.05
2022-10-29T06:59:41.750Z,6.82
2022-10-29T07:02:14.365Z,7.22
2022-10-29T07:04:43.329Z,6.93
2022-10-29T07:07:10.967Z,7.18
2022-10-29T07:09:40.055Z,7.28
2022-10-29T07:12:07.816Z,6.88
2022-10-29T07:14:35.305Z,6.97
2022-10-29T07:17:02.757Z,6.88
2022-10-29T07:19:30.189Z,6.97
2022-10-29T07:21:57.586Z,6.25
2022-10-29T07:24:24.983Z,6.35
2022-10-29T07:26:53.761Z,5.82
2022-10-29T07:29:25.030Z,7.00
2022-10-29T07:31:52.470Z,7.30
2022-10-29T07:34:19.953Z,6.70
2022-10-29T07:36:47.390Z,6.28
2022-10-29T07:39:14.829Z,7.47
2022-10-29T07:41:42.283Z,6.55
2022-10-29T07:44:17.041Z,6.22
2022-10-29T07:46:44.452Z,5.97
2022-10-29T07:49:11.885Z,6.53
2022-10-29T07:51:39.297Z,5.90
2022-10-29T07:54:08.728Z,6.65
2022-10-29T07:56:42.379Z,6.32
2022-10-29T07:59:14.329Z,5.55
2022-10-29T08:01:43.335Z,5.45
2022-10-29T08:04:10.853Z,5.80
2022-10-29T08:06:38.286Z,5.63
2022-10-29T08:09:05.684Z,7.25
2022-10-29T08:11:33.430Z,7.20
2022-10-29T08:14:00.859Z,6.13
2022-10-29T08:16:28.279Z,5.70
2022-10-29T08:18:57.190Z,5.22
2022-10-29T08:21:27.912Z,5.70
2022-10-29T08:23:56.036Z,5.63
2022-10-29T08:26:26.559Z,5.75
2022-10-29T08:28:54.061Z,6.10
2022-10-29T08:31:21.548Z,5.40
2022-10-29T08:33:49.156Z,5.32
2022-10-29T08:36:17.928Z,5.43
2022-10-29T08:38:45.334Z,5.78
2022-10-29T08:41:19.522Z,5.35
2022-10-29T08:43:53.456Z,5.93
2022-10-29T08:46:23.037Z,4.88
2022-10-29T08:48:54.405Z,5.50
2022-10-29T08:51:24.730Z,5.35
2022-10-29T08:54:10.344Z,5.90
2022-10-29T08:56:43.005Z,5.53
2022-10-29T08:59:14.321Z,5.72
2022-10-29T09:01:41.937Z,5.40
2022-10-29T09:04:18.980Z,5.10
2022-10-29T09:06:51.924Z,5.28
2022-10-29T09:09:27.533Z,5.45
2022-10-29T09:12:01.716Z,5.88
2022-10-29T09:14:47.334Z,5.32
2022-10-29T09:17:21.066Z,5.70
2022-10-29T09:19:57.089Z,5.13
2022-10-29T09:22:28.895Z,5.03
2022-10-29T09:25:00.147Z,5.68
2022-10-29T09:27:34.981Z,5.57
2022-10-29T09:30:05.336Z,5.85
2022-10-29T09:32:34.917Z,5.75
2022-10-29T09:35:03.982Z,5.35
2022-10-29T09:37:36.822Z,5.95
2022-10-29T09:40:14.102Z,5.20
2022-10-29T09:42:43.400Z,5.05
2022-10-29T09:45:15.834Z,4.68
2022-10-29T09:47:47.035Z,6.25
2022-10-29T09:50:19.044Z,5.30
2022-10-29T09:52:49.188Z,4.75
2022-10-29T09:55:19.000Z,4.72
2022-10-29T09:57:47.003Z,4.68
2022-10-29T10:00:17.966Z,4.93
2022-10-29T10:02:46.228Z,4.90
2022-10-29T10:05:15.940Z,5.38
2022-10-29T10:07:43.344Z,5.18
2022-10-29T10:10:20.984Z,4.60
2022-10-29T10:12:49.517Z,5.15
2022-10-29T10:15:29.418Z,5.72
2022-10-29T10:17:58.844Z,5.40
2022-10-29T10:20:28.621Z,4.80
2022-10-29T10:22:56.373Z,4.95
2022-10-29T10:25:34.305Z,5.00
2022-10-29T10:28:04.149Z,4.70
2022-10-29T10:30:31.563Z,5.60
2022-10-29T10:33:11.701Z,5.15
2022-10-29T10:35:39.507Z,4.55
2022-10-29T10:38:11.830Z,4.57
2022-10-29T10:40:42.445Z,4.95
2022-10-29T10:43:18.702Z,5.05
2022-10-29T10:45:53.009Z,4.82
2022-10-29T10:48:20.514Z,5.05
2022-10-29T10:50:48.419Z,4.32
2022-10-29T10:53:18.156Z,4.97
2022-10-29T10:55:49.629Z,4.53
2022-10-29T10:58:21.048Z,4.55
2022-10-29T11:00:50.144Z,4.70
2022-10-29T11:03:21.009Z,4.85
2022-10-29T11:05:50.787Z,3.95
2022-10-29T11:08:20.137Z,4.38
2022-10-29T11:10:51.269Z,5.25
2022-10-29T11:13:21.771Z,5.30
2022-10-29T11:15:51.659Z,4.70
2022-10-29T11:18:21.129Z,4.95
2022-10-29T11:20:51.404Z,4.88
2022-10-29T11:23:27.222Z,5.45
2022-10-29T11:25:57.316Z,4.95
2022-10-29T11:28:30.345Z,5.15
2022-10-29T11:31:00.802Z,4.40
2022-10-29T11:33:35.050Z,4.47
2022-10-29T11:36:04.712Z,5.05
2022-10-29T11:38:34.252Z,4.80
2022-10-29T11:41:05.887Z,5.60
2022-10-29T11:43:33.715Z,4.50
2022-10-29T11:46:08.789Z,4.68
2022-10-29T11:48:45.802Z,4.53
2022-10-29T11:51:18.627Z,4.88
2022-10-29T11:53:54.981Z,4.30
2022-10-29T11:56:25.781Z,4.68
2022-10-29T11:58:58.368Z,4.55
2022-10-29T12:01:29.060Z,4.55
2022-10-29T12:04:02.515Z,4.57
2022-10-29T12:06:35.255Z,5.03
2022-10-29T12:09:10.772Z,4.75
2022-10-29T12:11:43.125Z,4.85
2022-10-29T12:14:17.695Z,4.43
2022-10-29T12:16:50.299Z,4.72
2022-10-29T12:19:29.477Z,4.32
2022-10-29T12:21:59.171Z,5.65
2022-10-29T12:24:33.503Z,4.50
2022-10-29T12:27:06.645Z,4.80
2022-10-29T12:29:40.015Z,4.05
2022-10-29T12:32:10.104Z,4.28
2022-10-29T12:34:40.994Z,4.82
2022-10-29T12:37:11.489Z,4.88
2022-10-29T12:39:42.052Z,4.47
2022-10-29T12:42:14.318Z,5.18
2022-10-29T12:44:45.555Z,4.53
2022-10-29T12:47:15.884Z,4.50
2022-10-29T12:49:48.762Z,5.30
2022-10-29T12:52:20.242Z,5.13
2022-10-29T12:54:48.044Z,4.85
2022-10-29T12:57:24.358Z,4.85
2022-10-29T12:59:51.754Z,4.28
2022-10-29T13:02:30.167Z,4.35
2022-10-29T13:05:14.866Z,4.22
2022-10-29T13:07:57.467Z,4.45
2022-10-29T13:10:48.466Z,4.57
2022-10-29T13:13:21.937Z,4.32
2022-10-29T13:15:51.586Z,4.43
2022-10-29T13:18:22.082Z,4.78
2022-10-29T13:20:50.537Z,4.13
2022-10-29T13:23:32.208Z,5.38
2022-10-29T13:26:00.577Z,4.13
2022-10-29T13:28:47.064Z,3.92
2022-10-29T13:31:33.063Z,4.20
2022-10-29T13:34:01.817Z,4.10
2022-10-29T13:36:38.425Z,4.68
2022-10-29T13:39:18.372Z,4.40
2022-10-29T13:41:50.054Z,3.92
2022-10-29T13:44:18.469Z,4.85
2022-10-29T13:46:47.476Z,5.05
2022-10-29T13:49:19.299Z,5.38
2022-10-29T13:51:50.987Z,4.63
2022-10-29T13:54:25.146Z,5.50
2022-10-29T13:56:54.576Z,5.07
2022-10-29T13:59:26.131Z,4.90
2022-10-29T14:02:03.751Z,4.53
2022-10-29T14:04:35.655Z,4.22
2022-10-29T14:07:06.345Z,4.97
2022-10-29T14:09:38.615Z,5.15
2022-10-29T14:12:08.611Z,5.13
2022-10-29T14:14:38.239Z,4.25
2022-10-29T14:17:16.015Z,4.93
2022-10-29T14:19:47.375Z,4.43
2022-10-29T14:22:33.340Z,5.07
2022-10-29T14:25:02.048Z,4.63
2022-10-29T14:27:30.031Z,4.50
2022-10-29T14:30:13.806Z,4.63
2022-10-29T14:32:41.605Z,5.25
2022-10-29T14:35:15.026Z,5.30
2022-10-29T14:37:44.639Z,4.65
2022-10-29T14:40:16.980Z,4.65
2022-10-29T14:42:45.329Z,4.55
2022-10-29T14:45:18.391Z,5.15
2022-10-29T14:47:49.635Z,5.22
2022-10-29T14:50:19.744Z,5.75
2022-10-29T14:52:53.252Z,5.72
2022-10-29T14:55:22.540Z,6.10
2022-10-29T14:57:52.690Z,6.22
2022-10-29T15:00:23.653Z,5.03
2022-10-29T15:02:51.315Z,5.40
2022-10-29T15:05:23.422Z,6.13
2022-10-29T15:07:52.290Z,5.20
2022-10-29T15:10:21.263Z,4.50
2022-10-29T15:12:48.824Z,4.22
2022-10-29T15:15:24.040Z,4.63
2022-10-29T15:17:53.144Z,4.55
2022-10-29T15:20:22.011Z,5.72
2022-10-29T15:22:53.712Z,4.63
2022-10-29T15:25:23.981Z,4.25
2022-10-29T15:27:52.729Z,4.30
2022-10-29T15:30:20.782Z,4.72
2022-10-29T15:32:48.486Z,5.50
2022-10-29T15:35:19.963Z,4.82
2022-10-29T15:37:47.487Z,7.07
2022-10-29T15:40:17.768Z,7.80
2022-10-29T15:42:45.955Z,5.70
2022-10-29T15:45:21.403Z,4.90
2022-10-29T15:47:49.733Z,4.70
2022-10-29T15:50:18.512Z,5.10
2022-10-29T15:52:47.969Z,4.35
2022-10-29T15:55:25.987Z,4.85
2022-10-29T15:57:55.316Z,4.82
2022-10-29T16:00:23.974Z,5.25
2022-10-29T16:02:52.128Z,4.60
2022-10-29T16:05:19.835Z,4.68
2022-10-29T16:07:48.262Z,4.75
2022-10-29T16:10:18.663Z,5.15
2022-10-29T16:12:46.493Z,4.75
2022-10-29T16:15:14.777Z,5.05
2022-10-29T16:17:42.223Z,8.15
2022-10-29T16:20:13.016Z,9.23
2022-10-29T16:22:40.429Z,7.03
2022-10-29T16:25:08.342Z,6.55
2022-10-29T16:27:37.105Z,6.65
2022-10-29T16:30:04.723Z,6.50
2022-10-29T16:32:32.165Z,5.18
2022-10-29T16:34:59.566Z,5.78
2022-10-29T16:37:26.968Z,5.47
2022-10-29T16:39:54.419Z,5.47
2022-10-29T16:42:29.920Z,5.32
2022-10-29T16:44:58.828Z,5.65
2022-10-29T16:47:26.258Z,5.40
2022-10-29T16:49:53.765Z,6.03
2022-10-29T16:52:24.118Z,7.28
2022-10-29T16:54:53.925Z,6.97
2022-10-29T16:57:21.373Z,10.77
2022-10-29T16:59:48.779Z,9.02
2022-10-29T17:02:17.531Z,7.05
2022-10-29T17:04:44.907Z,7.00
2022-10-29T17:07:12.299Z,6.15
2022-10-29T17:09:40.070Z,5.40
2022-10-29T17:12:07.681Z,6.00
2022-10-29T17:14:35.054Z,5.85
2022-10-29T17:17:02.804Z,6.05
2022-10-29T17:19:31.620Z,6.45
2022-10-29T17:21:59.583Z,7.18
2022-10-29T17:24:27.233Z,8.23
2022-10-29T17:26:54.813Z,9.57
2022-10-29T17:29:22.280Z,8.15
2022-10-29T17:31:49.758Z,7.82
2022-10-29T17:34:17.180Z,7.97
2022-10-29T17:36:46.470Z,7.75
2022-10-29T17:39:13.967Z,8.95
2022-10-29T17:41:41.406Z,8.50
2022-10-29T17:44:08.805Z,9.48
2022-10-29T17:46:36.283Z,9.07
2022-10-29T17:49:03.812Z,10.70
2022-10-29T17:51:31.236Z,9.38
2022-10-29T17:53:59.997Z,8.77
2022-10-29T17:56:27.394Z,8.02
2022-10-29T17:58:54.809Z,8.07
2022-10-29T18:01:22.272Z,10.50
2022-10-29T18:03:49.751Z,8.63
2022-10-29T18:06:17.157Z,8.80
2022-10-29T18:08:45.230Z,7.97
2022-10-29T18:11:15.322Z,7.53
2022-10-29T18:13:43.945Z,8.23
2022-10-29T18:16:12.069Z,8.75
2022-10-29T18:18:54.370Z,7.40
2022-10-29T18:21:28.412Z,9.43
2022-10-29T18:23:55.870Z,6.80
2022-10-29T18:26:26.317Z,6.82
2022-10-29T18:28:54.333Z,7.13
2022-10-29T18:31:22.298Z,6.50
2022-10-29T18:33:49.981Z,7.35
2022-10-29T18:36:17.364Z,8.18
2022-10-29T18:38:44.793Z,7.72
2022-10-29T18:41:12.184Z,7.65
2022-10-29T18:43:41.009Z,8.30
2022-10-29T18:46:08.470Z,7.95
2022-10-29T18:48:37.800Z,9.35
2022-10-29T18:51:06.407Z,10.18
2022-10-29T18:53:34.821Z,8.90
2022-10-29T18:56:02.353Z,9.32
2022-10-29T18:58:29.787Z,8.85
2022-10-29T19:01:04.559Z,8.68
2022-10-29T19:03:32.136Z,9.35
2022-10-29T19:06:01.288Z,8.82
2022-10-29T19:08:28.828Z,9.43
2022-10-29T19:10:56.235Z,8.05
2022-10-29T19:13:23.703Z,7.60
2022-10-29T19:15:51.091Z,7.85
2022-10-29T19:18:19.820Z,8.10
2022-10-29T19:20:47.357Z,9.13
2022-10-29T19:23:15.141Z,8.43
2022-10-29T19:25:42.583Z,8.57
2022-10-29T19:28:10.037Z,8.90
2022-10-29T19:30:37.432Z,9.77
2022-10-29T19:33:07.934Z,8.30
2022-10-29T19:35:37.200Z,9.07
2022-10-29T19:38:04.665Z,9.10
2022-10-29T19:40:32.078Z,8.63
2022-10-29T19:42:59.619Z,9.40
2022-10-29T19:45:27.086Z,10.18
2022-10-29T19:47:54.841Z,9.85
2022-10-29T19:52:52.586Z,10.98
2022-10-29T19:55:19.999Z,9.40
2022-10-29T19:57:47.479Z,8.77
2022-10-29T20:00:17.767Z,8.98
2022-10-29T20:02:46.765Z,9.10
2022-10-29T20:05:14.176Z,9.43
2022-10-29T20:07:41.587Z,9.60
2022-10-29T20:10:10.487Z,9.82
2022-10-29T20:12:37.956Z,10.40
2022-10-29T20:15:06.576Z,10.70
2022-10-29T20:17:34.069Z,13.32
2022-10-29T20:20:01.539Z,14.48
2022-10-29T20:22:29.192Z,12.38
2022-10-29T20:24:56.625Z,10.95
2022-10-29T20:27:25.411Z,8.98
2022-10-29T20:29:52.836Z,9.63
2022-10-29T20:32:20.253Z,11.57
2022-10-29T20:34:47.697Z,11.02
2022-10-29T20:37:15.233Z,11.38
2022-10-29T20:39:42.693Z,11.30
2022-10-29T20:42:10.140Z,10.15
2022-10-29T20:44:38.999Z,9.23
2022-10-29T20:47:06.477Z,9.65
2022-10-29T20:49:33.904Z,9.52
2022-10-29T20:52:01.407Z,8.10
2022-10-29T20:54:28.881Z,9.25
2022-10-29T20:56:56.299Z,10.13
2022-10-29T20:59:23.723Z,9.90
2022-10-29T21:01:52.647Z,8.85
2022-10-29T21:04:20.233Z,8.00
2022-10-29T21:06:47.647Z,8.05
2022-10-29T21:09:15.108Z,8.13
2022-10-29T21:11:42.654Z,8.55
2022-10-29T21:14:10.097Z,7.50
2022-10-29T21:16:37.613Z,8.60
2022-10-29T21:19:07.199Z,8.32
2022-10-29T21:21:34.651Z,9.20
2022-10-29T21:24:02.085Z,9.32
2022-10-29T21:26:29.595Z,10.20
2022-10-29T21:28:57.443Z,10.38
2022-10-29T21:31:25.024Z,10.20
2022-10-29T21:33:52.901Z,10.38
2022-10-29T21:36:22.007Z,9.82
2022-10-29T21:38:49.427Z,10.50
2022-10-29T21:41:16.928Z,10.63
2022-10-29T21:43:44.311Z,9.93
2022-10-29T21:46:11.899Z,10.60
2022-10-29T21:48:39.308Z,11.23
2022-10-29T21:51:07.768Z,10.48
2022-10-29T21:53:36.537Z,9.38
2022-10-29T21:56:05.003Z,9.95
2022-10-29T21:58:32.477Z,9.65
2022-10-29T22:01:04.341Z,9.73
2022-10-29T22:03:32.394Z,8.48
2022-10-29T22:06:03.554Z,9.80
2022-10-29T22:08:31.013Z,10.75
2022-10-29T22:11:00.051Z,10.05
2022-10-29T22:13:27.832Z,10.55
2022-10-29T22:15:55.292Z,11.15
2022-10-29T22:18:22.822Z,10.98
2022-10-29T22:20:50.226Z,11.05
2022-10-29T22:23:17.800Z,11.30
2022-10-29T22:25:50.181Z,11.02
2022-10-29T22:28:18.962Z,9.32
2022-10-29T22:30:46.353Z,9.75
2022-10-29T22:33:15.564Z,10.15
2022-10-29T22:35:42.950Z,9.50
2022-10-29T22:38:10.367Z,9.13
2022-10-29T22:40:40.735Z,10.13
2022-10-29T22:43:08.118Z,10.00
2022-10-29T22:45:36.862Z,10.48
2022-10-29T22:48:04.311Z,9.88
2022-10-29T22:50:31.694Z,10.40
2022-10-29T22:52:59.336Z,10.60
2022-10-29T22:55:26.867Z,9.10
2022-10-29T22:57:54.275Z,9.50
2022-10-29T23:00:21.772Z,8.93
2022-10-29T23:02:50.531Z,9.25
2022-10-29T23:05:17.942Z,9.45
2022-10-29T23:07:45.357Z,9.88
2022-10-29T23:10:12.781Z,9.50
2022-10-29T23:12:40.199Z,9.63
2022-10-29T23:15:08.650Z,9.63
2022-10-29T23:17:36.130Z,8.88
2022-10-29T23:20:05.306Z,10.20
2022-10-29T23:22:32.666Z,8.88
2022-10-29T23:25:00.067Z,10.48
2022-10-29T23:27:27.492Z,8.93
2022-10-29T23:29:54.876Z,8.35
2022-10-29T23:32:22.277Z,8.45
2022-10-29T23:34:49.941Z,8.82
2022-10-29T23:37:18.926Z,8.57
2022-10-29T23:39:46.428Z,8.50
2022-10-29T23:42:13.817Z,9.52
2022-10-29T23:44:41.235Z,9.07
2022-10-29T23:47:08.682Z,8.75
2022-10-29T23:49:36.086Z,8.70
2022-10-29T23:52:03.494Z,8.60
2022-10-29T23:54:32.230Z,8.73
2022-10-29T23:56:59.671Z,10.02
2022-10-29T23:59:27.258Z,8.38
